createdAt,value
2022-11-24T00:01:32.259Z,55.33
2022-11-24T00:04:02.643Z,53.23
2022-11-24T00:06:33.634Z,54.33
2022-11-24T00:09:02.830Z,48.87
2022-11-24T00:11:33.207Z,55.10
2022-11-24T00:14:02.348Z,54.40
2022-11-24T00:16:34.086Z,47.50
2022-11-24T00:19:04.870Z,46.70
2022-11-24T00:21:34.327Z,48.33
2022-11-24T00:24:03.975Z,45.57
2022-11-24T00:26:33.954Z,44.23
2022-11-24T00:29:07.988Z,52.00
2022-11-24T00:31:40.172Z,50.77
2022-11-24T00:34:11.648Z,49.83
2022-11-24T00:36:40.905Z,52.17
2022-11-24T00:39:14.014Z,50.20
2022-11-24T00:41:44.730Z,53.37
2022-11-24T00:44:15.025Z,51.53
2022-11-24T00:46:45.796Z,53.43
2022-11-24T00:49:15.222Z,49.07
2022-11-24T00:51:44.883Z,50.80
2022-11-24T00:54:14.339Z,51.47
2022-11-24T00:56:43.702Z,51.37
2022-11-24T00:59:12.626Z,45.30
2022-11-24T01:01:42.990Z,48.20
2022-11-24T01:04:13.846Z,50.93
2022-11-24T01:06:43.123Z,53.30
2022-11-24T01:09:12.201Z,49.27
2022-11-24T01:11:58.942Z,49.47
2022-11-24T01:14:28.096Z,53.50
2022-11-24T01:16:57.976Z,54.63
2022-11-24T01:19:29.056Z,56.77
2022-11-24T01:21:58.565Z,48.40
2022-11-24T01:24:27.697Z,49.03
2022-11-24T01:26:57.056Z,50.67
2022-11-24T01:29:27.445Z,52.60
2022-11-24T01:31:56.891Z,45.40
2022-11-24T01:34:28.203Z,56.90
2022-11-24T01:36:57.617Z,47.93
2022-11-24T01:39:27.266Z,49.50
2022-11-24T01:41:56.472Z,47.20
2022-11-24T01:44:27.400Z,47.50
2022-11-24T01:47:00.248Z,42.07
2022-11-24T01:49:38.410Z,44.23
2022-11-24T01:52:10.188Z,47.03
2022-11-24T01:54:42.175Z,48.53
2022-11-24T01:57:14.744Z,52.17
2022-11-24T01:59:44.263Z,45.87
2022-11-24T02:02:14.299Z,44.90
2022-11-24T02:04:46.467Z,40.47
2022-11-24T02:07:16.218Z,44.87
2022-11-24T02:09:48.395Z,47.97
2022-11-24T02:12:17.809Z,41.27
2022-11-24T02:14:46.673Z,44.60
2022-11-24T02:17:15.949Z,44.57
2022-11-24T02:19:55.435Z,47.23
2022-11-24T02:22:32.270Z,45.97
2022-11-24T02:25:07.809Z,46.33
2022-11-24T02:27:58.260Z,41.00
2022-11-24T02:30:27.545Z,47.67
2022-11-24T02:32:56.668Z,42.60
2022-11-24T02:35:26.965Z,44.37
2022-11-24T02:37:56.000Z,44.03
2022-11-24T02:40:27.097Z,42.70
2022-11-24T02:42:59.994Z,42.40
2022-11-24T02:45:31.701Z,46.27
2022-11-24T02:48:01.197Z,46.90
2022-11-24T02:50:30.634Z,41.73
2022-11-24T02:52:59.782Z,41.20
2022-11-24T02:55:29.431Z,41.43
2022-11-24T02:58:00.344Z,46.93
2022-11-24T03:00:29.850Z,42.80
2022-11-24T03:02:58.917Z,43.67
2022-11-24T03:05:27.969Z,42.77
2022-11-24T03:07:57.638Z,40.57
2022-11-24T03:10:26.541Z,45.37
2022-11-24T03:12:56.883Z,35.80
2022-11-24T03:15:27.709Z,35.63
2022-11-24T03:17:57.906Z,38.33
2022-11-24T03:20:27.339Z,37.40
2022-11-24T03:22:56.528Z,40.17
2022-11-24T03:25:26.479Z,38.93
2022-11-24T03:27:57.985Z,41.30
2022-11-24T03:30:28.811Z,36.27
2022-11-24T03:32:57.845Z,39.53
2022-11-24T03:35:27.554Z,34.93
2022-11-24T03:37:56.438Z,38.53
2022-11-24T03:40:25.799Z,39.33
2022-11-24T03:42:54.746Z,38.13
2022-11-24T03:45:45.428Z,39.87
2022-11-24T03:48:14.532Z,39.07
2022-11-24T03:50:43.319Z,37.33
2022-11-24T03:53:12.074Z,37.17
2022-11-24T03:55:41.724Z,43.40
2022-11-24T03:58:10.989Z,40.13
2022-11-24T04:00:40.264Z,40.60
2022-11-24T04:03:09.146Z,39.03
2022-11-24T04:05:40.080Z,41.03
2022-11-24T04:08:09.635Z,39.83
2022-11-24T04:10:40.484Z,41.07
2022-11-24T04:13:13.027Z,37.93
2022-11-24T04:15:43.362Z,37.30
2022-11-24T04:18:13.876Z,39.37
2022-11-24T04:20:44.659Z,37.83
2022-11-24T04:23:13.397Z,38.27
2022-11-24T04:25:43.798Z,39.70
2022-11-24T04:28:13.460Z,43.50
2022-11-24T04:30:45.025Z,39.33
2022-11-24T04:33:15.750Z,39.40
2022-11-24T04:35:45.943Z,40.53
2022-11-24T04:39:19.815Z,39.37
2022-11-24T04:41:04.931Z,42.77
2022-11-24T04:43:40.299Z,41.07
2022-11-24T04:46:12.068Z,46.43
2022-11-24T04:48:42.745Z,43.53
2022-11-24T04:51:14.443Z,39.17
2022-11-24T04:53:43.416Z,39.37
2022-11-24T04:56:12.938Z,38.10
2022-11-24T04:58:41.864Z,42.03
2022-11-24T05:01:11.082Z,41.50
2022-11-24T05:03:40.278Z,40.50
2022-11-24T05:06:10.171Z,41.07
2022-11-24T05:08:41.003Z,43.40
2022-11-24T05:11:09.794Z,41.17
2022-11-24T05:13:38.582Z,44.97
2022-11-24T05:16:07.983Z,46.73
2022-11-24T05:18:38.030Z,50.63
2022-11-24T05:21:07.235Z,48.93
2022-11-24T05:23:36.108Z,47.00
2022-11-24T05:26:06.365Z,47.00
2022-11-24T05:28:35.139Z,51.67
2022-11-24T05:31:04.774Z,47.20
2022-11-24T05:33:34.130Z,55.10
2022-11-24T05:36:04.050Z,49.10
2022-11-24T05:38:33.182Z,51.83
2022-11-24T05:41:02.954Z,53.13
2022-11-24T05:43:33.117Z,54.63
2022-11-24T05:46:02.048Z,56.50
2022-11-24T05:48:30.938Z,53.97
2022-11-24T05:51:00.124Z,56.27
2022-11-24T05:53:28.906Z,60.30
2022-11-24T05:55:57.702Z,62.57
2022-11-24T05:58:26.410Z,67.63
2022-11-24T06:00:56.468Z,61.23
2022-11-24T06:03:25.562Z,64.03
2022-11-24T06:05:54.798Z,63.20
2022-11-24T06:08:28.190Z,65.33
2022-11-24T06:11:17.253Z,64.53
2022-11-24T06:13:47.083Z,65.03
2022-11-24T06:16:18.400Z,67.07
2022-11-24T06:18:47.404Z,67.60
2022-11-24T06:21:17.357Z,67.27
2022-11-24T06:23:49.338Z,64.90
2022-11-24T06:26:19.059Z,72.70
2022-11-24T06:28:48.027Z,67.90
2022-11-24T06:31:18.870Z,66.60
2022-11-24T06:33:48.281Z,68.23
2022-11-24T06:36:17.708Z,63.30
2022-11-24T06:38:46.670Z,67.00
2022-11-24T06:41:17.043Z,68.67
2022-11-24T06:43:46.783Z,67.90
2022-11-24T06:46:17.773Z,63.57
2022-11-24T06:48:46.670Z,65.67
2022-11-24T06:51:15.264Z,69.10
2022-11-24T06:53:44.023Z,61.90
2022-11-24T06:56:16.681Z,68.77
2022-11-24T06:58:47.766Z,66.83
2022-11-24T07:01:18.923Z,67.27
2022-11-24T07:03:48.439Z,66.07
2022-11-24T07:06:17.190Z,61.93
2022-11-24T07:08:45.963Z,59.50
2022-11-24T07:11:17.757Z,64.23
2022-11-24T07:13:47.684Z,64.70
2022-11-24T07:16:19.250Z,56.83
2022-11-24T07:18:48.769Z,60.40
2022-11-24T07:21:17.901Z,64.43
2022-11-24T07:23:49.072Z,65.37
2022-11-24T07:26:18.823Z,56.53
2022-11-24T07:28:48.277Z,54.07
2022-11-24T07:31:20.221Z,48.23
2022-11-24T07:33:49.857Z,60.00
2022-11-24T07:36:19.062Z,58.43
2022-11-24T07:38:48.020Z,58.73
2022-11-24T07:41:19.426Z,52.73
2022-11-24T07:43:49.291Z,53.90
2022-11-24T07:46:21.277Z,52.80
2022-11-24T07:48:49.938Z,53.00
2022-11-24T07:51:18.839Z,51.83
2022-11-24T07:53:47.875Z,48.77
2022-11-24T07:56:17.284Z,46.77
2022-11-24T07:58:51.401Z,44.50
2022-11-24T08:01:23.237Z,44.90
2022-11-24T08:03:52.138Z,41.73
2022-11-24T08:06:27.427Z,38.83
2022-11-24T08:09:00.143Z,45.00
2022-11-24T08:11:31.529Z,42.00
2022-11-24T08:14:00.242Z,40.43
2022-11-24T08:16:30.562Z,44.17
2022-11-24T08:18:59.096Z,42.63
2022-11-24T08:21:27.985Z,39.70
2022-11-24T08:23:57.484Z,40.97
2022-11-24T08:26:26.852Z,40.47
2022-11-24T08:28:57.807Z,40.23
2022-11-24T08:31:32.969Z,35.50
2022-11-24T08:34:04.791Z,39.37
2022-11-24T08:36:34.452Z,37.73
2022-11-24T08:39:03.780Z,37.90
2022-11-24T08:41:33.311Z,36.53
2022-11-24T08:44:02.108Z,36.97
2022-11-24T08:46:31.173Z,32.30
2022-11-24T08:49:00.360Z,33.03
2022-11-24T08:51:31.249Z,35.30
2022-11-24T08:54:01.269Z,30.37
2022-11-24T08:56:31.571Z,35.37
2022-11-24T08:59:01.170Z,31.40
2022-11-24T09:01:31.148Z,33.37
2022-11-24T09:04:00.727Z,31.43
2022-11-24T09:06:31.822Z,34.07
2022-11-24T09:09:00.766Z,34.27
2022-11-24T09:11:31.196Z,32.67
2022-11-24T09:13:59.645Z,32.90
2022-11-24T09:16:29.655Z,32.50
2022-11-24T09:18:59.798Z,30.17
2022-11-24T09:21:30.358Z,28.93
2022-11-24T09:23:58.993Z,30.47
2022-11-24T09:26:29.267Z,27.70
2022-11-24T09:29:00.624Z,30.73
2022-11-24T09:31:30.762Z,30.93
2022-11-24T09:33:59.770Z,28.33
2022-11-24T09:36:32.131Z,28.90
2022-11-24T09:39:00.928Z,31.93
2022-11-24T09:41:39.664Z,28.00
2022-11-24T09:44:27.232Z,29.27
2022-11-24T09:47:01.691Z,28.63
2022-11-24T09:49:35.205Z,33.33
2022-11-24T09:52:10.184Z,41.03
2022-11-24T09:54:39.828Z,31.50
2022-11-24T09:57:14.248Z,32.60
2022-11-24T09:59:44.185Z,29.03
2022-11-24T10:02:13.967Z,26.33
2022-11-24T10:04:45.610Z,31.13
2022-11-24T10:07:24.292Z,28.67
2022-11-24T10:10:00.639Z,31.27
2022-11-24T10:12:43.582Z,36.80
2022-11-24T10:15:30.381Z,37.83
2022-11-24T10:18:17.031Z,30.37
2022-11-24T10:20:54.056Z,29.33
2022-11-24T10:23:41.121Z,34.23
2022-11-24T10:26:17.997Z,33.17
2022-11-24T10:28:52.272Z,32.03
2022-11-24T10:31:26.203Z,29.97
2022-11-24T10:33:54.970Z,31.40
2022-11-24T10:36:29.644Z,31.67
2022-11-24T10:39:05.117Z,36.37
2022-11-24T10:41:41.824Z,37.60
2022-11-24T10:44:15.786Z,35.63
2022-11-24T10:46:44.615Z,31.37
2022-11-24T10:49:18.934Z,37.33
2022-11-24T10:52:02.278Z,30.20
2022-11-24T10:54:32.290Z,31.17
2022-11-24T10:57:01.381Z,30.83
2022-11-24T10:59:38.393Z,37.60
2022-11-24T11:02:33.845Z,38.30
2022-11-24T11:05:28.697Z,34.73
2022-11-24T11:08:22.835Z,34.10
2022-11-24T11:11:15.285Z,39.70
2022-11-24T11:14:03.142Z,37.97
2022-11-24T11:16:36.567Z,35.47
2022-11-24T11:19:26.192Z,32.27
2022-11-24T11:22:02.768Z,34.03
2022-11-24T11:24:32.346Z,32.57
2022-11-24T11:27:05.299Z,38.70
2022-11-24T11:35:14.570Z,37.33
2022-11-24T11:37:43.403Z,44.27
2022-11-24T11:40:16.652Z,33.93
2022-11-24T11:43:02.464Z,36.00
2022-11-24T11:45:36.667Z,33.30
2022-11-24T11:48:21.781Z,35.53
2022-11-24T11:53:46.086Z,40.33
2022-11-24T11:56:25.479Z,34.73
2022-11-24T11:59:18.254Z,34.77
2022-11-24T12:02:18.728Z,32.90
2022-11-24T12:04:53.724Z,31.27
2022-11-24T12:07:52.591Z,37.07
2022-11-24T12:10:27.520Z,38.17
2022-11-24T12:13:05.264Z,37.97
2022-11-24T12:15:41.055Z,36.90
2022-11-24T12:18:55.920Z,31.87
2022-11-24T12:21:26.020Z,34.67
2022-11-24T12:24:04.790Z,41.40
2022-11-24T12:26:39.807Z,30.17
2022-11-24T12:29:41.867Z,38.30
2022-11-24T12:32:22.991Z,37.67
2022-11-24T12:34:55.880Z,35.43
2022-11-24T12:37:47.091Z,28.90
2022-11-24T12:40:19.171Z,33.33
2022-11-24T12:42:54.083Z,33.40
2022-11-24T12:45:29.721Z,34.43
2022-11-24T12:48:20.210Z,34.50
2022-11-24T12:50:49.325Z,34.40
2022-11-24T12:53:20.660Z,32.20
2022-11-24T12:55:49.644Z,35.77
2022-11-24T12:58:24.086Z,30.73
2022-11-24T13:01:09.263Z,27.73
2022-11-24T13:03:48.712Z,32.17
2022-11-24T13:06:19.985Z,34.53
2022-11-24T13:08:49.173Z,33.70
2022-11-24T13:11:39.183Z,28.97
2022-11-24T13:14:12.899Z,31.40
2022-11-24T13:19:42.071Z,34.47
2022-11-24T13:22:17.781Z,35.07
2022-11-24T13:24:46.639Z,33.13
2022-11-24T13:27:30.294Z,27.57
2022-11-24T13:29:59.017Z,27.80
2022-11-24T13:32:59.943Z,29.27
2022-11-24T13:35:30.999Z,29.77
2022-11-24T13:38:00.104Z,29.63
2022-11-24T13:40:59.714Z,31.83
2022-11-24T13:43:32.255Z,30.93
2022-11-24T13:46:03.857Z,27.00
2022-11-24T13:48:57.507Z,33.17
2022-11-24T13:51:27.894Z,26.37
2022-11-24T13:53:58.712Z,32.17
2022-11-24T13:56:31.145Z,31.07
2022-11-24T13:59:02.007Z,27.70
2022-11-24T14:01:32.640Z,31.50
2022-11-24T14:04:30.455Z,26.73
2022-11-24T14:07:08.295Z,30.60
2022-11-24T14:09:42.523Z,32.23
2022-11-24T14:12:16.132Z,29.60
2022-11-24T14:14:46.388Z,28.77
2022-11-24T14:17:18.756Z,30.83
2022-11-24T14:19:49.099Z,25.37
2022-11-24T14:22:22.620Z,36.70
2022-11-24T14:24:56.084Z,29.53
2022-11-24T14:27:30.939Z,32.03
2022-11-24T14:30:01.662Z,26.33
2022-11-24T14:32:30.355Z,27.83
2022-11-24T14:34:59.390Z,29.97
2022-11-24T14:37:29.447Z,26.50
2022-11-24T14:39:58.051Z,34.77
2022-11-24T14:42:28.489Z,30.53
2022-11-24T14:44:59.140Z,26.67
2022-11-24T14:47:31.970Z,26.90
2022-11-24T14:50:09.664Z,27.93
2022-11-24T14:52:46.638Z,31.87
2022-11-24T14:55:27.718Z,30.93
2022-11-24T14:57:56.577Z,28.50
2022-11-24T15:00:31.147Z,30.23
2022-11-24T15:03:17.369Z,29.77
2022-11-24T15:05:56.939Z,26.83
2022-11-24T15:08:28.562Z,26.23
2022-11-24T15:10:59.847Z,24.97
2022-11-24T15:13:37.128Z,30.33
2022-11-24T15:16:08.188Z,27.67
2022-11-24T15:18:43.976Z,28.30
2022-11-24T15:21:18.957Z,26.47
2022-11-24T15:24:08.205Z,30.53
2022-11-24T15:26:41.922Z,24.37
2022-11-24T15:29:11.705Z,29.87
2022-11-24T15:31:41.425Z,27.90
2022-11-24T15:34:14.362Z,30.57
2022-11-24T15:36:43.162Z,26.90
2022-11-24T15:39:13.979Z,25.27
2022-11-24T15:41:43.561Z,23.47
2022-11-24T15:44:12.903Z,25.43
2022-11-24T15:46:42.403Z,26.83
2022-11-24T15:49:11.552Z,29.13
2022-11-24T15:51:44.029Z,30.60
2022-11-24T15:54:16.392Z,33.33
2022-11-24T15:56:45.530Z,33.07
2022-11-24T15:59:20.180Z,48.17
2022-11-24T16:01:49.868Z,46.63
2022-11-24T16:04:19.130Z,31.67
2022-11-24T16:06:48.170Z,32.30
2022-11-24T16:09:18.438Z,28.80
2022-11-24T16:11:47.536Z,27.17
2022-11-24T16:14:16.235Z,27.13
2022-11-24T16:16:45.193Z,29.27
2022-11-24T16:19:16.010Z,29.33
2022-11-24T16:21:44.702Z,25.70
2022-11-24T16:24:13.665Z,25.77
2022-11-24T16:26:44.309Z,29.47
2022-11-24T16:29:13.425Z,25.93
2022-11-24T16:31:43.621Z,24.30
2022-11-24T16:34:12.351Z,28.73
2022-11-24T16:36:41.048Z,25.63
2022-11-24T16:39:09.859Z,24.87
2022-11-24T16:41:39.133Z,26.63
2022-11-24T16:44:09.216Z,22.50
2022-11-24T16:46:38.333Z,27.33
2022-11-24T16:49:07.031Z,32.40
2022-11-24T16:51:35.513Z,27.13
2022-11-24T16:54:05.094Z,29.73
2022-11-24T16:56:33.762Z,32.93
2022-11-24T16:59:02.987Z,35.67
2022-11-24T17:01:33.428Z,27.47
2022-11-24T17:04:03.269Z,31.87
2022-11-24T17:06:34.885Z,32.17
2022-11-24T17:09:03.792Z,29.50
2022-11-24T17:11:32.948Z,24.87
2022-11-24T17:14:01.774Z,29.63
2022-11-24T17:16:32.647Z,27.03
2022-11-24T17:19:01.554Z,28.33
2022-11-24T17:21:31.627Z,28.77
2022-11-24T17:24:01.524Z,25.80
2022-11-24T17:26:30.625Z,27.47
2022-11-24T17:28:59.446Z,34.80
2022-11-24T17:31:32.531Z,29.07
2022-11-24T17:34:04.251Z,29.27
2022-11-24T17:36:34.737Z,29.53
2022-11-24T17:39:05.283Z,32.33
2022-11-24T17:41:34.404Z,30.87
2022-11-24T17:44:03.168Z,36.43
2022-11-24T17:46:33.870Z,33.87
2022-11-24T17:49:04.670Z,30.63
2022-11-24T17:51:33.543Z,27.33
2022-11-24T17:54:18.641Z,25.47
2022-11-24T17:56:51.442Z,29.03
2022-11-24T17:59:20.853Z,26.93
2022-11-24T18:01:49.819Z,27.43
2022-11-24T18:04:23.630Z,37.67
2022-11-24T18:06:52.667Z,35.33
2022-11-24T18:09:21.725Z,27.30
2022-11-24T18:11:52.224Z,29.23
2022-11-24T18:14:22.158Z,35.60
2022-11-24T18:16:51.275Z,27.93
2022-11-24T18:19:19.972Z,35.40
2022-11-24T18:21:50.220Z,35.80
2022-11-24T18:24:23.899Z,28.53
2022-11-24T18:26:53.229Z,31.87
2022-11-24T18:29:22.540Z,34.60
2022-11-24T18:31:51.320Z,32.77
2022-11-24T18:34:19.779Z,31.07
2022-11-24T18:36:52.216Z,31.57
2022-11-24T18:39:21.831Z,34.00
2022-11-24T18:41:50.602Z,30.63
2022-11-24T18:44:19.411Z,30.63
2022-11-24T18:46:48.487Z,32.73
2022-11-24T18:49:17.168Z,32.77
2022-11-24T18:51:45.757Z,33.00
2022-11-24T18:54:16.281Z,28.83
2022-11-24T18:56:45.238Z,29.00
2022-11-24T18:59:15.457Z,28.67
2022-11-24T19:01:46.383Z,32.33
2022-11-24T19:04:15.416Z,30.73
2022-11-24T19:06:44.692Z,27.70
2022-11-24T19:09:16.567Z,36.27
2022-11-24T19:11:46.272Z,34.07
2022-11-24T19:14:16.843Z,28.77
2022-11-24T19:16:46.316Z,31.10
2022-11-24T19:19:17.102Z,33.97
2022-11-24T19:21:46.056Z,35.67
2022-11-24T19:24:16.805Z,31.67
2022-11-24T19:26:45.761Z,32.47
2022-11-24T19:29:14.283Z,33.43
2022-11-24T19:31:44.282Z,33.43
2022-11-24T19:34:14.111Z,32.07
2022-11-24T19:36:43.701Z,31.40
2022-11-24T19:39:17.022Z,32.03
2022-11-24T19:41:46.034Z,37.43
2022-11-24T19:44:15.626Z,32.60
2022-11-24T19:46:44.667Z,37.50
2022-11-24T19:49:14.260Z,38.33
2022-11-24T19:51:44.224Z,40.80
2022-11-24T19:54:14.013Z,44.03
2022-11-24T19:56:44.798Z,39.83
2022-11-24T19:59:15.489Z,46.57
2022-11-24T20:01:44.757Z,43.80
2022-11-24T20:04:15.731Z,45.30
2022-11-24T20:06:47.319Z,39.97
2022-11-24T20:09:18.203Z,40.80
2022-11-24T20:11:49.573Z,42.00
2022-11-24T20:14:19.572Z,42.37
2022-11-24T20:16:48.496Z,42.13
2022-11-24T20:19:18.607Z,43.73
2022-11-24T20:21:50.124Z,43.43
2022-11-24T20:24:20.773Z,42.63
2022-11-24T20:26:53.056Z,47.10
2022-11-24T20:29:22.695Z,51.60
2022-11-24T20:31:53.932Z,47.10
2022-11-24T20:34:24.611Z,47.00
2022-11-24T20:36:54.295Z,51.43
2022-11-24T20:39:26.424Z,50.77
2022-11-24T20:41:57.652Z,49.17
2022-11-24T20:44:27.974Z,53.57
2022-11-24T20:46:59.980Z,47.37
2022-11-24T20:49:30.652Z,54.33
2022-11-24T20:52:00.420Z,56.50
2022-11-24T20:54:29.803Z,54.53
2022-11-24T20:57:01.039Z,53.93
2022-11-24T20:59:30.133Z,49.63
2022-11-24T21:01:59.563Z,57.30
2022-11-24T21:04:29.777Z,55.80
2022-11-24T21:06:58.878Z,61.23
2022-11-24T21:09:28.479Z,53.67
2022-11-24T21:11:58.318Z,59.97
2022-11-24T21:14:33.952Z,60.50
2022-11-24T21:17:03.918Z,59.97
2022-11-24T21:19:33.350Z,75.70
2022-11-24T21:22:02.533Z,70.60
2022-11-24T21:24:31.938Z,62.17
2022-11-24T21:27:01.313Z,78.33
2022-11-24T21:29:31.735Z,62.07
2022-11-24T21:32:00.412Z,62.10
2022-11-24T21:34:29.666Z,68.30
2022-11-24T21:36:58.383Z,67.17
2022-11-24T21:39:27.420Z,69.40
2022-11-24T21:41:56.533Z,52.53
2022-11-24T21:44:25.396Z,54.67
2022-11-24T21:46:56.304Z,53.20
2022-11-24T21:49:25.370Z,46.77
2022-11-24T21:51:56.118Z,44.07
2022-11-24T21:54:25.413Z,44.97
2022-11-24T21:56:55.876Z,45.77
2022-11-24T21:59:24.771Z,44.27
2022-11-24T22:01:54.899Z,45.33
2022-11-24T22:04:23.596Z,42.00
2022-11-24T22:06:54.206Z,39.17
2022-11-24T22:09:23.094Z,41.67
2022-11-24T22:11:52.705Z,43.43
2022-11-24T22:14:23.520Z,44.87
2022-11-24T22:16:54.620Z,41.47
2022-11-24T22:19:23.462Z,39.60
2022-11-24T22:21:52.390Z,35.03
2022-11-24T22:24:25.863Z,36.83
2022-11-24T22:26:56.246Z,35.00
2022-11-24T22:29:24.959Z,36.87
2022-11-24T22:31:55.207Z,31.03
2022-11-24T22:34:23.890Z,32.40
2022-11-24T22:36:52.920Z,28.57
2022-11-24T22:39:21.780Z,27.93
2022-11-24T22:41:50.528Z,28.30
2022-11-24T22:44:19.323Z,30.63
2022-11-24T22:46:48.394Z,26.97
2022-11-24T22:49:18.644Z,28.70
2022-11-24T22:51:47.264Z,26.77
2022-11-24T22:54:16.348Z,28.97
2022-11-24T22:56:44.840Z,26.70
2022-11-24T22:59:13.649Z,26.20
2022-11-24T23:01:42.844Z,24.93
2022-11-24T23:04:12.049Z,25.50
2022-11-24T23:06:42.505Z,26.10
2022-11-24T23:09:13.189Z,24.07
2022-11-24T23:11:42.762Z,24.50
2022-11-24T23:14:14.428Z,25.40
2022-11-24T23:16:43.900Z,25.47
2022-11-24T23:19:12.958Z,29.10
2022-11-24T23:21:43.293Z,28.13
2022-11-24T23:24:12.779Z,26.50
2022-11-24T23:26:43.185Z,26.10
2022-11-24T23:29:12.109Z,28.87
2022-11-24T23:31:41.204Z,28.23
2022-11-24T23:34:10.203Z,31.50
2022-11-24T23:36:39.676Z,27.70
2022-11-24T23:39:12.584Z,30.40
2022-11-24T23:41:41.823Z,25.27
2022-11-24T23:44:10.616Z,29.27
2022-11-24T23:46:39.118Z,33.53
2022-11-24T23:49:07.977Z,31.00
2022-11-24T23:51:38.379Z,33.23
2022-11-24T23:54:10.691Z,37.80
2022-11-24T23:56:39.690Z,43.20
2022-11-24T23:59:11.384Z,38.47
